TimeMDT,TemperatureF,Dew PointF,Humidity,Sea Level PressureIn,VisibilityMPH,Wind Direction,Wind SpeedMPH,Gust SpeedMPH,PrecipitationIn,Events,Conditions,WindDirDegrees,DateUTC
12:53 AM,28.9,19.9,69,30.22,10.0,NNE,8.1,-,N/A,,Overcast,20,2013-03-12 06:53:00
1:53 AM,28.0,19.0,69,30.24,10.0,North,5.8,-,N/A,,Overcast,10,2013-03-12 07:53:00
2:31 AM,26.6,17.6,69,30.20,10.0,North,8.1,-,N/A,,Overcast,10,2013-03-12 08:31:00
2:53 AM,28.0,18.0,66,30.25,10.0,NNE,5.8,-,N/A,,Overcast,20,2013-03-12 08:53:00
3:31 AM,26.6,17.6,69,30.20,10.0,NNE,5.8,-,N/A,,Overcast,20,2013-03-12 09:31:00
3:53 AM,28.0,19.0,69,30.24,10.0,ENE,6.9,-,N/A,,Overcast,60,2013-03-12 09:53:00
4:53 AM,28.0,19.0,69,30.22,10.0,East,10.4,-,N/A,,Overcast,100,2013-03-12 10:53:00
5:53 AM,26.1,18.0,71,30.27,10.0,ENE,8.1,-,N/A,,Overcast,70,2013-03-12 11:53:00
6:53 AM,25.0,18.0,75,30.29,10.0,East,6.9,-,N/A,,Overcast,80,2013-03-12 12:53:00
7:11 AM,24.8,17.6,74,30.21,10.0,East,8.1,-,N/A,,Scattered Clouds,90,2013-03-12 13:11:00
7:44 AM,23.0,15.8,74,30.22,10.0,East,8.1,-,N/A,,Mostly Cloudy,80,2013-03-12 13:44:00
7:53 AM,23.0,17.1,78,30.31,10.0,East,6.9,-,N/A,,Mostly Cloudy,80,2013-03-12 13:53:00
8:17 AM,24.8,15.8,69,30.21,10.0,East,4.6,-,N/A,,Scattered Clouds,80,2013-03-12 14:17:00
8:53 AM,27.0,17.1,66,30.32,10.0,ENE,6.9,-,N/A,,Partly Cloudy,70,2013-03-12 14:53:00
9:53 AM,30.0,18.0,61,30.32,10.0,East,3.5,-,N/A,,Clear,80,2013-03-12 15:53:00
10:53 AM,33.1,19.0,56,30.27,10.0,Calm,Calm,-,N/A,,Clear,0,2013-03-12 16:53:00
11:53 AM,37.0,17.1,44,30.25,10.0,Calm,Calm,-,N/A,,Clear,0,2013-03-12 17:53:00
12:53 PM,39.0,16.0,39,30.24,10.0,North,3.5,-,N/A,,Clear,360,2013-03-12 18:53:00
1:53 PM,42.1,17.1,37,30.20,10.0,Calm,Calm,-,N/A,,Clear,0,2013-03-12 19:53:00
2:53 PM,43.0,17.1,35,30.16,10.0,East,6.9,-,N/A,,Clear,90,2013-03-12 20:53:00
3:53 PM,45.0,17.1,33,30.13,10.0,SE,5.8,-,N/A,,Clear,130,2013-03-12 21:53:00
4:53 PM,46.9,16.0,29,30.11,10.0,ESE,4.6,-,N/A,,Clear,120,2013-03-12 22:53:00
5:53 PM,46.9,17.1,30,30.12,10.0,ENE,10.4,-,N/A,,Clear,60,2013-03-12 23:53:00
6:53 PM,43.0,17.1,35,30.15,10.0,NNE,9.2,-,N/A,,Clear,20,2013-03-13 00:53:00
7:53 PM,37.9,16.0,41,30.19,10.0,North,8.1,-,N/A,,Clear,350,2013-03-13 01:53:00
8:53 PM,37.0,15.1,41,30.18,10.0,Calm,Calm,-,N/A,,Clear,0,2013-03-13 02:53:00
9:53 PM,39.0,16.0,39,30.17,10.0,South,5.8,-,N/A,,Clear,190,2013-03-13 03:53:00
10:53 PM,37.0,18.0,46,30.18,10.0,WSW,10.4,-,N/A,,Clear,250,2013-03-13 04:53:00
11:53 PM,37.9,19.9,48,30.15,10.0,West,10.4,-,N/A,,Clear,260,2013-03-13 05:53:00